createdAt,value
2022-12-16T00:01:35.226Z,72.25
2022-12-16T00:04:06.667Z,71.69
2022-12-16T00:06:38.500Z,71.52
2022-12-16T00:09:05.722Z,71.32
2022-12-16T00:11:32.869Z,72.19
2022-12-16T00:14:00.150Z,71.91
2022-12-16T00:16:27.654Z,71.67
2022-12-16T00:18:54.749Z,71.94
2022-12-16T00:21:21.859Z,71.41
2022-12-16T00:23:49.054Z,71.74
2022-12-16T00:26:16.464Z,72.26
2022-12-16T00:28:44.065Z,71.45
2022-12-16T00:31:12.704Z,71.47
2022-12-16T00:33:39.918Z,71.72
2022-12-16T00:36:08.091Z,71.63
2022-12-16T00:38:35.398Z,72.11
2022-12-16T00:41:02.677Z,71.69
2022-12-16T00:43:29.936Z,72.13
2022-12-16T00:45:57.345Z,71.46
2022-12-16T00:48:25.710Z,71.39
2022-12-16T00:50:55.102Z,71.92
2022-12-16T00:53:24.067Z,71.78
2022-12-16T00:55:51.955Z,71.86
2022-12-16T00:58:19.245Z,71.27
2022-12-16T01:00:46.866Z,71.79
2022-12-16T01:03:18.139Z,71.73
2022-12-16T01:05:49.121Z,71.10
2022-12-16T01:08:16.246Z,71.73
2022-12-16T01:10:43.344Z,71.78
2022-12-16T01:13:10.532Z,71.66
2022-12-16T01:15:38.035Z,71.68
2022-12-16T01:18:05.449Z,71.90
2022-12-16T01:20:34.644Z,71.33
2022-12-16T01:23:01.739Z,71.68
2022-12-16T01:25:28.820Z,71.96
2022-12-16T01:27:56.098Z,71.83
2022-12-16T01:30:23.945Z,71.53
2022-12-16T01:32:51.262Z,71.92
2022-12-16T01:35:51.453Z,71.65
2022-12-16T01:38:06.491Z,71.49
2022-12-16T01:40:33.702Z,71.49
2022-12-16T01:43:01.125Z,72.19
2022-12-16T01:45:33.581Z,71.82
2022-12-16T01:48:16.954Z,71.97
2022-12-16T01:50:44.554Z,71.35
2022-12-16T01:56:00.027Z,71.95
2022-12-16T01:58:32.673Z,71.59
2022-12-16T02:01:01.020Z,71.50
2022-12-16T02:03:31.512Z,71.38
2022-12-16T02:06:00.806Z,71.56
2022-12-16T02:08:28.072Z,71.30
2022-12-16T02:14:00.899Z,72.00
2022-12-16T02:16:55.898Z,71.75
2022-12-16T02:19:47.775Z,71.52
2022-12-16T02:22:33.522Z,71.41
2022-12-16T02:25:12.482Z,71.72
2022-12-16T02:30:50.516Z,71.80
2022-12-16T02:33:34.818Z,71.25
2022-12-16T02:36:20.705Z,71.07
2022-12-16T02:39:03.188Z,71.63
2022-12-16T02:41:57.755Z,71.74
2022-12-16T02:47:33.261Z,71.26
2022-12-16T02:50:00.692Z,71.69
2022-12-16T02:52:31.271Z,71.34
2022-12-16T02:55:03.081Z,71.38
2022-12-16T02:57:36.560Z,72.19
2022-12-16T03:02:48.350Z,71.79
2022-12-16T03:05:27.499Z,71.42
2022-12-16T03:07:58.831Z,72.28
2022-12-16T03:10:30.927Z,72.24
2022-12-16T03:13:01.658Z,72.08
2022-12-16T03:15:33.218Z,72.16
2022-12-16T03:20:56.058Z,72.01
2022-12-16T03:23:29.792Z,72.03
2022-12-16T03:26:06.125Z,71.85
2022-12-16T03:28:52.796Z,71.52
2022-12-16T03:31:57.384Z,71.69
2022-12-16T03:37:26.360Z,71.80
2022-12-16T03:39:58.389Z,71.76
2022-12-16T03:42:26.122Z,71.86
2022-12-16T03:44:53.547Z,71.82
2022-12-16T03:47:23.861Z,71.61
2022-12-16T03:49:51.806Z,72.21
2022-12-16T03:55:03.913Z,71.38
2022-12-16T03:57:31.037Z,71.96
2022-12-16T03:59:58.246Z,71.45
2022-12-16T04:02:25.522Z,71.79
2022-12-16T04:04:52.872Z,71.75
2022-12-16T04:10:10.331Z,72.28
2022-12-16T04:12:55.888Z,72.08
2022-12-16T04:15:41.459Z,71.48
2022-12-16T04:18:38.254Z,72.15
2022-12-16T04:21:24.238Z,71.44
2022-12-16T04:27:20.307Z,71.68
2022-12-16T04:30:05.777Z,72.08
2022-12-16T04:32:53.183Z,71.89
2022-12-16T04:35:39.064Z,71.46
2022-12-16T04:38:24.613Z,71.82
2022-12-16T04:44:13.237Z,71.68
2022-12-16T04:46:59.188Z,71.51
2022-12-16T04:49:44.807Z,71.58
2022-12-16T04:52:30.526Z,72.02
2022-12-16T04:55:15.955Z,72.00
2022-12-16T05:01:10.542Z,71.17
2022-12-16T05:03:56.318Z,71.46
2022-12-16T05:06:41.931Z,71.73
2022-12-16T05:09:28.065Z,71.50
2022-12-16T05:12:13.614Z,71.57
2022-12-16T05:14:59.323Z,71.80
2022-12-16T05:17:45.123Z,71.58
2022-12-16T05:20:30.642Z,71.32
2022-12-16T05:23:16.520Z,71.32
2022-12-16T05:26:02.039Z,71.34
2022-12-16T05:28:48.183Z,71.73
2022-12-16T05:34:37.115Z,71.36
2022-12-16T05:37:36.537Z,71.51
2022-12-16T05:40:22.432Z,71.56
2022-12-16T05:43:10.918Z,71.51
2022-12-16T05:46:03.057Z,71.20
2022-12-16T05:48:48.641Z,71.12
2022-12-16T05:51:34.199Z,71.39
2022-12-16T05:54:19.892Z,71.38
2022-12-16T05:57:05.688Z,71.45
2022-12-16T05:59:51.306Z,71.09
2022-12-16T06:02:38.206Z,70.94
2022-12-16T06:05:24.151Z,70.82
2022-12-16T06:08:20.779Z,71.47
2022-12-16T06:11:06.420Z,70.78
2022-12-16T06:13:51.818Z,71.04
2022-12-16T06:16:37.379Z,71.14
2022-12-16T06:19:22.902Z,70.79
2022-12-16T06:22:08.629Z,70.76
2022-12-16T06:24:54.240Z,70.96
2022-12-16T06:27:39.882Z,70.87
2022-12-16T06:30:26.209Z,71.00
2022-12-16T06:33:11.588Z,70.03
2022-12-16T06:35:57.159Z,69.41
2022-12-16T06:38:42.852Z,69.80
2022-12-16T06:41:28.554Z,69.50
2022-12-16T06:44:14.131Z,70.15
2022-12-16T06:46:59.879Z,70.21
2022-12-16T06:49:45.332Z,70.19
2022-12-16T06:52:31.002Z,69.56
2022-12-16T06:55:16.551Z,69.63
2022-12-16T06:58:05.409Z,69.84
2022-12-16T07:00:55.087Z,69.32
2022-12-16T07:03:41.669Z,69.27
2022-12-16T07:06:38.003Z,68.81
2022-12-16T07:09:23.705Z,69.45
2022-12-16T07:12:09.310Z,69.22
2022-12-16T07:14:55.126Z,69.20
2022-12-16T07:17:41.673Z,68.53
2022-12-16T07:20:27.736Z,68.63
2022-12-16T07:23:19.316Z,69.09
2022-12-16T07:26:05.465Z,69.42
2022-12-16T07:28:51.124Z,68.46
2022-12-16T07:31:36.727Z,68.66
2022-12-16T07:34:22.218Z,68.40
2022-12-16T07:37:07.970Z,68.78
2022-12-16T07:39:55.320Z,69.03
2022-12-16T07:42:42.537Z,68.55
2022-12-16T07:45:29.319Z,67.89
2022-12-16T07:48:15.525Z,68.32
2022-12-16T07:51:01.148Z,67.96
2022-12-16T07:53:47.145Z,67.90
2022-12-16T07:56:33.276Z,68.59
2022-12-16T07:59:18.858Z,67.99
2022-12-16T08:02:04.564Z,68.43
2022-12-16T08:04:50.005Z,68.27
2022-12-16T08:07:35.579Z,67.77
2022-12-16T08:10:20.974Z,68.11
2022-12-16T08:13:06.747Z,67.20
2022-12-16T08:15:52.450Z,67.74
2022-12-16T08:18:38.383Z,67.79
2022-12-16T08:21:24.075Z,67.20
2022-12-16T08:24:09.623Z,67.32
2022-12-16T08:26:55.137Z,67.52
2022-12-16T08:29:45.251Z,67.18
2022-12-16T08:32:32.814Z,67.49
2022-12-16T08:35:19.450Z,66.93
2022-12-16T08:38:10.553Z,66.69
2022-12-16T08:41:03.780Z,66.88
2022-12-16T08:43:51.465Z,66.70
2022-12-16T08:46:37.055Z,65.76
2022-12-16T08:49:23.465Z,66.46
2022-12-16T08:52:09.659Z,65.84
2022-12-16T08:54:55.204Z,66.15
2022-12-16T08:57:40.662Z,65.55
2022-12-16T09:00:28.269Z,65.33
2022-12-16T09:03:15.214Z,64.32
2022-12-16T09:06:01.407Z,65.09
2022-12-16T09:08:47.509Z,64.97
2022-12-16T09:11:33.103Z,64.42
2022-12-16T09:14:18.928Z,64.70
2022-12-16T09:17:04.509Z,64.80
2022-12-16T09:19:50.056Z,64.16
2022-12-16T09:22:36.730Z,63.18
2022-12-16T09:25:22.686Z,63.71
2022-12-16T09:28:08.518Z,63.75
2022-12-16T09:30:54.458Z,63.21
2022-12-16T09:33:41.426Z,63.06
2022-12-16T09:36:27.288Z,62.67
2022-12-16T09:39:12.808Z,63.69
2022-12-16T09:42:02.250Z,62.55
2022-12-16T09:44:59.687Z,62.28
2022-12-16T09:48:03.362Z,62.05
2022-12-16T09:50:50.118Z,63.03
2022-12-16T09:53:40.430Z,61.91
2022-12-16T09:56:51.128Z,62.75
2022-12-16T09:59:52.694Z,61.31
2022-12-16T10:02:41.091Z,61.25
2022-12-16T10:05:40.846Z,60.65
2022-12-16T10:08:40.805Z,61.74
2022-12-16T10:11:36.017Z,61.34
2022-12-16T10:14:33.159Z,61.64
2022-12-16T10:17:31.442Z,61.71
2022-12-16T10:20:30.734Z,61.69
2022-12-16T10:23:41.880Z,61.84
2022-12-16T10:26:38.261Z,61.03
2022-12-16T10:29:39.723Z,61.40
2022-12-16T10:33:00.210Z,61.37
2022-12-16T10:36:00.588Z,61.57
2022-12-16T10:38:59.535Z,60.62
2022-12-16T10:41:53.701Z,61.11
2022-12-16T10:45:02.264Z,61.04
2022-12-16T10:47:48.840Z,60.82
2022-12-16T10:50:34.707Z,60.94
2022-12-16T10:53:36.185Z,60.86
2022-12-16T10:56:30.548Z,61.71
2022-12-16T10:59:23.422Z,61.38
2022-12-16T11:02:17.292Z,60.78
2022-12-16T11:05:04.304Z,60.80
2022-12-16T11:08:02.137Z,61.35
2022-12-16T11:10:56.112Z,60.78
2022-12-16T11:13:53.159Z,60.26
2022-12-16T11:16:42.848Z,61.54
2022-12-16T11:19:40.928Z,61.24
2022-12-16T11:22:33.776Z,60.93
2022-12-16T11:25:25.411Z,61.03
2022-12-16T11:28:30.667Z,60.85
2022-12-16T11:31:20.917Z,61.37
2022-12-16T11:34:08.375Z,61.37
2022-12-16T11:36:56.904Z,60.81
2022-12-16T11:39:45.438Z,61.06
2022-12-16T11:42:39.250Z,61.04
2022-12-16T11:45:31.798Z,60.78
2022-12-16T11:48:50.272Z,61.24
2022-12-16T11:51:38.249Z,61.24
2022-12-16T11:54:24.098Z,61.27
2022-12-16T11:57:10.171Z,61.40
2022-12-16T12:00:01.772Z,61.24
2022-12-16T12:02:59.590Z,61.34
2022-12-16T12:06:15.921Z,61.77
2022-12-16T12:09:13.043Z,61.37
2022-12-16T12:12:17.493Z,61.59
2022-12-16T12:15:23.112Z,61.54
2022-12-16T12:18:30.271Z,61.53
2022-12-16T12:22:02.704Z,61.23
2022-12-16T12:25:32.137Z,62.31
2022-12-16T12:28:42.248Z,61.73
2022-12-16T12:32:00.284Z,61.59
2022-12-16T12:35:11.487Z,61.48
2022-12-16T12:38:16.627Z,61.56
2022-12-16T12:41:08.409Z,62.04
2022-12-16T12:44:15.926Z,62.01
2022-12-16T12:47:18.947Z,62.40
2022-12-16T12:50:23.090Z,62.41
2022-12-16T12:53:17.810Z,62.16
2022-12-16T12:56:12.660Z,62.63
2022-12-16T12:59:00.784Z,62.61
2022-12-16T13:01:51.082Z,61.80
2022-12-16T13:04:42.186Z,62.43
2022-12-16T13:07:28.305Z,62.19
2022-12-16T13:10:38.966Z,61.95
2022-12-16T13:13:34.089Z,62.13
2022-12-16T13:16:28.143Z,62.09
2022-12-16T13:20:11.614Z,62.12
2022-12-16T13:23:00.266Z,61.86
2022-12-16T13:26:02.124Z,61.88
2022-12-16T13:28:49.821Z,61.29
2022-12-16T13:31:36.498Z,61.76
2022-12-16T13:34:34.430Z,61.75
2022-12-16T13:37:28.290Z,62.01
2022-12-16T13:40:21.354Z,62.23
2022-12-16T13:43:10.067Z,62.36
2022-12-16T13:46:02.366Z,61.56
2022-12-16T13:49:05.812Z,61.88
2022-12-16T13:51:57.161Z,62.17
2022-12-16T13:55:09.911Z,62.14
2022-12-16T13:57:59.849Z,62.00
2022-12-16T14:00:47.437Z,61.98
2022-12-16T14:03:46.196Z,61.80
2022-12-16T14:06:49.055Z,61.96
2022-12-16T14:09:50.592Z,62.69
2022-12-16T14:12:58.195Z,62.03
2022-12-16T14:16:17.041Z,62.21
2022-12-16T14:19:25.509Z,61.57
2022-12-16T14:22:34.503Z,62.22
2022-12-16T14:25:40.925Z,61.89
2022-12-16T14:28:41.619Z,61.79
2022-12-16T14:31:49.104Z,62.01
2022-12-16T14:34:41.083Z,62.14
2022-12-16T14:37:52.383Z,61.00
2022-12-16T14:40:48.086Z,61.50
2022-12-16T14:43:38.108Z,62.20
2022-12-16T14:46:24.719Z,62.12
2022-12-16T14:49:10.841Z,61.85
2022-12-16T14:52:03.821Z,62.39
2022-12-16T14:54:52.259Z,62.04
2022-12-16T14:57:44.522Z,61.72
2022-12-16T15:00:35.678Z,61.78
2022-12-16T15:03:41.077Z,62.20
2022-12-16T15:06:33.705Z,62.49
2022-12-16T15:09:24.775Z,61.93
2022-12-16T15:12:13.095Z,62.69
2022-12-16T15:15:00.710Z,62.74
2022-12-16T15:17:48.862Z,62.29
2022-12-16T15:20:40.178Z,62.60
2022-12-16T15:23:49.551Z,62.25
2022-12-16T15:26:41.080Z,62.53
2022-12-16T15:29:47.908Z,61.67
2022-12-16T15:32:54.274Z,62.17
2022-12-16T15:35:53.676Z,62.83
2022-12-16T15:38:49.591Z,62.95
2022-12-16T15:41:56.123Z,62.87
2022-12-16T15:44:44.708Z,62.86
2022-12-16T15:47:46.887Z,62.93
2022-12-16T15:50:34.078Z,63.22
2022-12-16T15:53:47.943Z,62.49
2022-12-16T15:56:37.681Z,62.74
2022-12-16T15:59:38.622Z,63.32
2022-12-16T16:02:40.022Z,62.58
2022-12-16T16:05:35.031Z,62.46
2022-12-16T16:08:20.656Z,62.69
2022-12-16T16:11:06.331Z,63.15
2022-12-16T16:13:51.856Z,62.49
2022-12-16T16:16:37.304Z,62.88
2022-12-16T16:19:23.537Z,62.90
2022-12-16T16:22:09.007Z,62.78
2022-12-16T16:24:54.771Z,63.06
2022-12-16T16:27:40.448Z,63.64
2022-12-16T16:30:29.693Z,62.90
2022-12-16T16:33:15.144Z,62.83
2022-12-16T16:36:05.336Z,63.31
2022-12-16T16:38:50.621Z,62.82
2022-12-16T16:41:38.902Z,63.16
2022-12-16T16:44:24.634Z,63.63
2022-12-16T16:47:10.012Z,63.32
2022-12-16T16:50:06.035Z,63.48
2022-12-16T16:52:51.613Z,63.06
2022-12-16T16:55:43.129Z,62.92
2022-12-16T16:58:44.411Z,63.44
2022-12-16T17:01:35.298Z,63.93
2022-12-16T17:04:21.591Z,63.46
2022-12-16T17:07:07.485Z,63.12
2022-12-16T17:09:53.286Z,63.83
2022-12-16T17:12:44.812Z,63.43
2022-12-16T17:15:35.578Z,63.66
2022-12-16T17:18:21.716Z,63.67
2022-12-16T17:21:07.362Z,63.52
2022-12-16T17:23:53.132Z,63.13
2022-12-16T17:26:39.047Z,63.74
2022-12-16T17:29:24.667Z,63.72
2022-12-16T17:32:10.476Z,63.79
2022-12-16T17:34:56.026Z,63.89
2022-12-16T17:37:41.609Z,63.31
2022-12-16T17:40:28.591Z,63.98
2022-12-16T17:43:14.040Z,63.09
2022-12-16T17:45:59.560Z,62.93
2022-12-16T17:48:45.766Z,63.77
2022-12-16T17:51:31.738Z,63.83
2022-12-16T17:54:23.721Z,63.36
2022-12-16T17:57:13.419Z,63.79
2022-12-16T17:59:59.603Z,63.34
2022-12-16T18:02:45.149Z,63.79
2022-12-16T18:05:37.625Z,63.69
2022-12-16T18:08:26.726Z,62.96
2022-12-16T18:11:16.681Z,63.39
2022-12-16T18:14:02.697Z,63.14
2022-12-16T18:16:49.315Z,62.53
2022-12-16T18:19:35.979Z,62.36
2022-12-16T18:22:22.656Z,62.98
2022-12-16T18:25:08.290Z,62.25
2022-12-16T18:27:56.330Z,62.95
2022-12-16T18:30:41.945Z,62.62
2022-12-16T18:33:27.398Z,63.24
2022-12-16T18:36:13.316Z,63.48
2022-12-16T18:38:58.784Z,62.77
2022-12-16T18:41:44.444Z,63.49
2022-12-16T18:44:32.066Z,62.65
2022-12-16T18:47:18.015Z,63.20
2022-12-16T18:50:03.699Z,62.25
2022-12-16T18:52:50.795Z,62.93
2022-12-16T18:55:36.262Z,62.24
2022-12-16T18:58:49.551Z,62.38
2022-12-16T19:01:30.112Z,62.37
2022-12-16T19:04:16.221Z,62.95
2022-12-16T19:07:01.771Z,62.64
2022-12-16T19:09:47.487Z,62.30
2022-12-16T19:12:33.015Z,62.58
2022-12-16T19:15:19.940Z,62.99
2022-12-16T19:18:05.895Z,62.45
2022-12-16T19:20:51.378Z,62.49
2022-12-16T19:23:37.914Z,62.69
2022-12-16T19:26:23.990Z,62.35
2022-12-16T19:29:09.521Z,62.96
2022-12-16T19:35:00.906Z,62.57
2022-12-16T19:37:46.664Z,62.62
2022-12-16T19:40:32.263Z,63.25
2022-12-16T19:43:17.842Z,62.73
2022-12-16T19:46:10.453Z,63.21
2022-12-16T19:48:56.887Z,62.96
2022-12-16T19:51:42.902Z,63.01
2022-12-16T19:54:28.578Z,62.52
2022-12-16T19:57:13.993Z,63.24
2022-12-16T19:59:59.740Z,63.76
2022-12-16T20:02:45.182Z,63.77
2022-12-16T20:05:31.327Z,62.90
2022-12-16T20:08:16.964Z,63.37
2022-12-16T20:11:02.683Z,63.61
2022-12-16T20:13:48.483Z,63.41
2022-12-16T20:16:34.290Z,62.93
2022-12-16T20:19:19.815Z,63.05
2022-12-16T20:22:07.059Z,63.47
2022-12-16T20:24:56.353Z,63.10
2022-12-16T20:27:42.556Z,63.29
2022-12-16T20:30:49.482Z,63.87
2022-12-16T20:33:35.380Z,64.13
2022-12-16T20:36:23.275Z,63.78
2022-12-16T20:39:09.095Z,63.47
2022-12-16T20:41:55.951Z,63.73
2022-12-16T20:44:42.471Z,63.83
2022-12-16T20:47:28.294Z,64.10
2022-12-16T20:50:13.991Z,63.82
2022-12-16T20:52:59.494Z,64.39
2022-12-16T20:55:45.147Z,64.39
2022-12-16T20:58:36.290Z,64.41
2022-12-16T21:01:22.115Z,64.14
2022-12-16T21:04:08.122Z,64.55
2022-12-16T21:06:53.637Z,64.84
2022-12-16T21:09:41.648Z,64.25
2022-12-16T21:12:27.368Z,64.07
2022-12-16T21:15:13.089Z,64.09
2022-12-16T21:17:58.570Z,64.09
2022-12-16T21:20:44.082Z,64.25
2022-12-16T21:23:29.421Z,64.65
2022-12-16T21:26:17.705Z,65.22
2022-12-16T21:29:03.296Z,64.57
2022-12-16T21:31:48.742Z,64.37
2022-12-16T21:34:34.257Z,65.11
2022-12-16T21:37:19.867Z,65.14
2022-12-16T21:40:05.502Z,65.72
2022-12-16T21:42:56.384Z,65.71
2022-12-16T21:45:42.188Z,64.99
2022-12-16T21:48:30.212Z,65.35
2022-12-16T21:51:16.010Z,64.86
2022-12-16T21:54:06.400Z,64.28
2022-12-16T21:56:53.631Z,64.67
2022-12-16T21:59:42.385Z,64.88
2022-12-16T22:02:32.266Z,64.28
2022-12-16T22:05:21.241Z,64.25
2022-12-16T22:08:07.424Z,64.32
2022-12-16T22:10:52.731Z,64.30
2022-12-16T22:13:42.050Z,64.71
2022-12-16T22:16:28.419Z,64.80
2022-12-16T22:19:14.476Z,65.20
2022-12-16T22:22:00.165Z,65.09
2022-12-16T22:24:45.714Z,65.33
2022-12-16T22:27:31.098Z,64.40
2022-12-16T22:30:16.600Z,65.10
2022-12-16T22:33:02.186Z,64.80
2022-12-16T22:35:47.864Z,64.54
2022-12-16T22:38:33.536Z,64.87
2022-12-16T22:41:20.158Z,64.42
2022-12-16T22:44:05.746Z,64.52
2022-12-16T22:46:51.193Z,64.27
2022-12-16T22:49:37.843Z,64.67
2022-12-16T22:52:23.467Z,64.59
2022-12-16T22:55:09.676Z,64.37
2022-12-16T22:57:55.279Z,64.76
2022-12-16T23:00:42.072Z,64.30
2022-12-16T23:03:35.828Z,65.09
2022-12-16T23:06:23.012Z,64.06
2022-12-16T23:09:09.717Z,63.95
2022-12-16T23:11:58.500Z,64.75
2022-12-16T23:14:45.213Z,64.51
2022-12-16T23:17:31.333Z,64.27
2022-12-16T23:20:16.953Z,64.33
2022-12-16T23:23:02.508Z,64.50
2022-12-16T23:25:48.072Z,63.94
2022-12-16T23:28:33.711Z,64.42
2022-12-16T23:31:19.240Z,64.41
2022-12-16T23:34:04.843Z,64.63
2022-12-16T23:36:50.244Z,64.28
2022-12-16T23:39:36.100Z,64.75
2022-12-16T23:42:21.671Z,64.12
2022-12-16T23:45:07.047Z,64.23
2022-12-16T23:47:52.823Z,64.05
2022-12-16T23:50:41.902Z,64.14
2022-12-16T23:53:29.819Z,64.54
2022-12-16T23:56:18.410Z,64.40
2022-12-16T23:59:06.061Z,63.98
